sensor_id;sensor_type;location;lat;lon;timestamp;temperature;humidity
16392;DHT22;8305;-33.882;151.134;2023-06-10T00:01:47;12.90;99.90
16392;DHT22;8305;-33.882;151.134;2023-06-10T00:04:19;13.10;99.90
16392;DHT22;8305;-33.882;151.134;2023-06-10T00:06:52;13.20;99.90
16392;DHT22;8305;-33.882;151.134;2023-06-10T00:09:23;13.40;99.90
16392;DHT22;8305;-33.882;151.134;2023-06-10T00:11:54;13.50;99.90
16392;DHT22;8305;-33.882;151.134;2023-06-10T00:14:27;13.60;99.90
16392;DHT22;8305;-33.882;151.134;2023-06-10T00:16:58;13.70;99.90
16392;DHT22;8305;-33.882;151.134;2023-06-10T00:19:30;13.80;99.90
16392;DHT22;8305;-33.882;151.134;2023-06-10T00:22:03;13.80;99.90
16392;DHT22;8305;-33.882;151.134;2023-06-10T00:24:34;13.90;99.90
16392;DHT22;8305;-33.882;151.134;2023-06-10T00:27:06;14.10;99.90
16392;DHT22;8305;-33.882;151.134;2023-06-10T00:29:37;14.10;99.90
16392;DHT22;8305;-33.882;151.134;2023-06-10T00:32:09;14.30;99.90
16392;DHT22;8305;-33.882;151.134;2023-06-10T00:34:40;14.50;99.90
16392;DHT22;8305;-33.882;151.134;2023-06-10T00:37:13;14.50;99.90
16392;DHT22;8305;-33.882;151.134;2023-06-10T00:39:44;14.60;99.90
16392;DHT22;8305;-33.882;151.134;2023-06-10T00:42:15;14.70;99.90
16392;DHT22;8305;-33.882;151.134;2023-06-10T00:44:47;14.70;99.90
16392;DHT22;8305;-33.882;151.134;2023-06-10T00:47:18;14.80;99.90
16392;DHT22;8305;-33.882;151.134;2023-06-10T00:49:50;14.90;99.90
16392;DHT22;8305;-33.882;151.134;2023-06-10T00:52:25;14.90;99.90
16392;DHT22;8305;-33.882;151.134;2023-06-10T00:54:58;15.00;99.90
16392;DHT22;8305;-33.882;151.134;2023-06-10T00:57:30;15.00;99.90
16392;DHT22;8305;-33.882;151.134;2023-06-10T01:00:02;15.10;99.90
16392;DHT22;8305;-33.882;151.134;2023-06-10T01:02:36;15.20;99.90
16392;DHT22;8305;-33.882;151.134;2023-06-10T01:05:07;15.30;99.90
16392;DHT22;8305;-33.882;151.134;2023-06-10T01:07:46;15.40;99.90
16392;DHT22;8305;-33.882;151.134;2023-06-10T01:10:24;15.40;99.90
16392;DHT22;8305;-33.882;151.134;2023-06-10T01:13:00;15.40;99.90
16392;DHT22;8305;-33.882;151.134;2023-06-10T01:15:32;15.50;99.90
16392;DHT22;8305;-33.882;151.134;2023-06-10T01:18:04;15.50;99.90
16392;DHT22;8305;-33.882;151.134;2023-06-10T01:20:37;15.60;99.90
16392;DHT22;8305;-33.882;151.134;2023-06-10T01:23:11;15.70;99.90
16392;DHT22;8305;-33.882;151.134;2023-06-10T01:25:44;15.70;99.90
16392;DHT22;8305;-33.882;151.134;2023-06-10T01:28:19;15.70;99.90
16392;DHT22;8305;-33.882;151.134;2023-06-10T01:30:59;15.80;99.90
16392;DHT22;8305;-33.882;151.134;2023-06-10T01:33:35;15.90;99.90
16392;DHT22;8305;-33.882;151.134;2023-06-10T01:36:07;15.80;99.90
16392;DHT22;8305;-33.882;151.134;2023-06-10T01:38:43;15.80;99.90
16392;DHT22;8305;-33.882;151.134;2023-06-10T01:41:15;15.90;99.90
16392;DHT22;8305;-33.882;151.134;2023-06-10T01:43:47;16.00;99.90
16392;DHT22;8305;-33.882;151.134;2023-06-10T01:46:19;16.10;99.90
16392;DHT22;8305;-33.882;151.134;2023-06-10T01:48:50;16.30;99.90
16392;DHT22;8305;-33.882;151.134;2023-06-10T01:51:21;16.30;99.90
16392;DHT22;8305;-33.882;151.134;2023-06-10T01:53:54;16.30;99.90
16392;DHT22;8305;-33.882;151.134;2023-06-10T01:56:25;16.40;99.90
16392;DHT22;8305;-33.882;151.134;2023-06-10T01:58:56;16.50;99.90
16392;DHT22;8305;-33.882;151.134;2023-06-10T02:01:28;16.50;99.90
16392;DHT22;8305;-33.882;151.134;2023-06-10T02:03:59;16.50;99.90
16392;DHT22;8305;-33.882;151.134;2023-06-10T02:06:30;16.50;99.90
16392;DHT22;8305;-33.882;151.134;2023-06-10T02:09:04;16.60;99.90
16392;DHT22;8305;-33.882;151.134;2023-06-10T02:11:35;16.80;99.90
16392;DHT22;8305;-33.882;151.134;2023-06-10T02:14:06;16.70;99.90
16392;DHT22;8305;-33.882;151.134;2023-06-10T02:16:37;16.80;99.90
16392;DHT22;8305;-33.882;151.134;2023-06-10T02:19:08;16.80;99.90
16392;DHT22;8305;-33.882;151.134;2023-06-10T02:21:40;16.90;99.90
16392;DHT22;8305;-33.882;151.134;2023-06-10T02:24:13;17.00;99.90
16392;DHT22;8305;-33.882;151.134;2023-06-10T02:26:44;17.00;99.90
16392;DHT22;8305;-33.882;151.134;2023-06-10T02:29:15;17.10;99.90
16392;DHT22;8305;-33.882;151.134;2023-06-10T02:31:47;17.10;99.90
16392;DHT22;8305;-33.882;151.134;2023-06-10T02:34:20;17.00;99.90
16392;DHT22;8305;-33.882;151.134;2023-06-10T02:36:51;17.10;99.90
16392;DHT22;8305;-33.882;151.134;2023-06-10T02:39:24;17.20;99.90
16392;DHT22;8305;-33.882;151.134;2023-06-10T02:41:55;17.30;99.90
16392;DHT22;8305;-33.882;151.134;2023-06-10T02:44:27;17.40;99.90
16392;DHT22;8305;-33.882;151.134;2023-06-10T02:46:58;17.40;99.90
16392;DHT22;8305;-33.882;151.134;2023-06-10T02:49:29;17.40;99.90
16392;DHT22;8305;-33.882;151.134;2023-06-10T02:52:00;17.40;99.90
16392;DHT22;8305;-33.882;151.134;2023-06-10T02:54:33;17.50;99.90
16392;DHT22;8305;-33.882;151.134;2023-06-10T02:57:05;17.50;99.90
16392;DHT22;8305;-33.882;151.134;2023-06-10T02:59:36;17.70;99.90
16392;DHT22;8305;-33.882;151.134;2023-06-10T03:02:08;17.70;99.90
16392;DHT22;8305;-33.882;151.134;2023-06-10T03:04:39;17.70;99.90
16392;DHT22;8305;-33.882;151.134;2023-06-10T03:07:11;17.70;99.90
16392;DHT22;8305;-33.882;151.134;2023-06-10T03:09:44;17.50;99.90
16392;DHT22;8305;-33.882;151.134;2023-06-10T03:12:15;17.50;99.90
16392;DHT22;8305;-33.882;151.134;2023-06-10T03:14:46;17.50;99.90
16392;DHT22;8305;-33.882;151.134;2023-06-10T03:17:17;17.50;99.90
16392;DHT22;8305;-33.882;151.134;2023-06-10T03:19:49;17.60;99.90
16392;DHT22;8305;-33.882;151.134;2023-06-10T03:22:20;17.70;99.90
16392;DHT22;8305;-33.882;151.134;2023-06-10T03:24:53;17.70;99.90
16392;DHT22;8305;-33.882;151.134;2023-06-10T03:27:25;17.70;99.90
16392;DHT22;8305;-33.882;151.134;2023-06-10T03:29:57;17.60;99.90
16392;DHT22;8305;-33.882;151.134;2023-06-10T03:32:28;17.60;99.90
16392;DHT22;8305;-33.882;151.134;2023-06-10T03:34:59;17.60;99.90
16392;DHT22;8305;-33.882;151.134;2023-06-10T03:37:30;17.70;99.90
16392;DHT22;8305;-33.882;151.134;2023-06-10T03:40:03;17.70;99.90
16392;DHT22;8305;-33.882;151.134;2023-06-10T03:42:35;17.80;99.90
16392;DHT22;8305;-33.882;151.134;2023-06-10T03:45:07;17.70;99.90
16392;DHT22;8305;-33.882;151.134;2023-06-10T03:47:38;17.70;99.90
16392;DHT22;8305;-33.882;151.134;2023-06-10T03:50:11;17.70;99.90
16392;DHT22;8305;-33.882;151.134;2023-06-10T03:52:42;17.80;99.90
16392;DHT22;8305;-33.882;151.134;2023-06-10T03:55:16;17.80;99.90
16392;DHT22;8305;-33.882;151.134;2023-06-10T03:57:49;17.80;99.90
16392;DHT22;8305;-33.882;151.134;2023-06-10T04:00:21;17.70;99.90
16392;DHT22;8305;-33.882;151.134;2023-06-10T04:02:52;17.70;99.90
16392;DHT22;8305;-33.882;151.134;2023-06-10T04:05:26;17.70;99.90
16392;DHT22;8305;-33.882;151.134;2023-06-10T04:07:58;17.60;99.90
16392;DHT22;8305;-33.882;151.134;2023-06-10T04:10:31;17.70;99.90
16392;DHT22;8305;-33.882;151.134;2023-06-10T04:13:02;17.80;99.90
16392;DHT22;8305;-33.882;151.134;2023-06-10T04:15:33;17.90;99.90
16392;DHT22;8305;-33.882;151.134;2023-06-10T04:18:05;17.80;99.90
16392;DHT22;8305;-33.882;151.134;2023-06-10T04:20:36;17.80;99.90
16392;DHT22;8305;-33.882;151.134;2023-06-10T04:23:07;17.90;99.90
16392;DHT22;8305;-33.882;151.134;2023-06-10T04:25:40;17.90;99.90
16392;DHT22;8305;-33.882;151.134;2023-06-10T04:28:11;17.90;99.90
16392;DHT22;8305;-33.882;151.134;2023-06-10T04:30:42;17.90;99.90
16392;DHT22;8305;-33.882;151.134;2023-06-10T04:33:14;17.90;99.90
16392;DHT22;8305;-33.882;151.134;2023-06-10T04:35:45;17.90;99.90
16392;DHT22;8305;-33.882;151.134;2023-06-10T04:38:16;17.90;99.90
16392;DHT22;8305;-33.882;151.134;2023-06-10T04:40:49;18.00;99.90
16392;DHT22;8305;-33.882;151.134;2023-06-10T04:43:21;18.00;99.90
16392;DHT22;8305;-33.882;151.134;2023-06-10T04:45:52;18.00;99.90
16392;DHT22;8305;-33.882;151.134;2023-06-10T04:48:23;18.00;99.90
16392;DHT22;8305;-33.882;151.134;2023-06-10T04:50:54;17.90;99.90
16392;DHT22;8305;-33.882;151.134;2023-06-10T04:53:25;17.90;99.90
16392;DHT22;8305;-33.882;151.134;2023-06-10T04:55:58;18.00;99.90
16392;DHT22;8305;-33.882;151.134;2023-06-10T04:58:29;18.00;99.90
16392;DHT22;8305;-33.882;151.134;2023-06-10T05:01:00;18.00;99.90
16392;DHT22;8305;-33.882;151.134;2023-06-10T05:03:32;18.00;99.90
16392;DHT22;8305;-33.882;151.134;2023-06-10T05:06:03;17.90;99.90
16392;DHT22;8305;-33.882;151.134;2023-06-10T05:08:34;17.90;99.90
16392;DHT22;8305;-33.882;151.134;2023-06-10T05:11:07;17.80;99.90
16392;DHT22;8305;-33.882;151.134;2023-06-10T05:13:38;17.80;99.90
16392;DHT22;8305;-33.882;151.134;2023-06-10T05:16:10;17.80;99.90
16392;DHT22;8305;-33.882;151.134;2023-06-10T05:18:43;17.70;99.90
16392;DHT22;8305;-33.882;151.134;2023-06-10T05:21:14;17.60;99.90
16392;DHT22;8305;-33.882;151.134;2023-06-10T05:23:45;17.60;99.90
16392;DHT22;8305;-33.882;151.134;2023-06-10T05:26:18;17.60;99.90
16392;DHT22;8305;-33.882;151.134;2023-06-10T05:28:49;17.60;99.90
16392;DHT22;8305;-33.882;151.134;2023-06-10T05:31:20;17.60;99.90
16392;DHT22;8305;-33.882;151.134;2023-06-10T05:33:51;17.60;99.90
16392;DHT22;8305;-33.882;151.134;2023-06-10T05:36:22;17.60;99.90
16392;DHT22;8305;-33.882;151.134;2023-06-10T05:38:54;17.50;99.90
16392;DHT22;8305;-33.882;151.134;2023-06-10T05:41:27;17.50;99.90
16392;DHT22;8305;-33.882;151.134;2023-06-10T05:43:58;17.50;99.90
16392;DHT22;8305;-33.882;151.134;2023-06-10T05:46:29;17.40;99.90
16392;DHT22;8305;-33.882;151.134;2023-06-10T05:49:01;17.40;99.90
16392;DHT22;8305;-33.882;151.134;2023-06-10T05:51:32;17.30;99.90
16392;DHT22;8305;-33.882;151.134;2023-06-10T05:54:03;17.30;99.90
16392;DHT22;8305;-33.882;151.134;2023-06-10T05:56:36;17.20;99.90
16392;DHT22;8305;-33.882;151.134;2023-06-10T05:59:07;17.20;99.90
16392;DHT22;8305;-33.882;151.134;2023-06-10T06:01:38;17.20;99.90
16392;DHT22;8305;-33.882;151.134;2023-06-10T06:04:10;17.10;99.90
16392;DHT22;8305;-33.882;151.134;2023-06-10T06:06:41;17.10;99.90
16392;DHT22;8305;-33.882;151.134;2023-06-10T06:09:12;17.10;99.90
16392;DHT22;8305;-33.882;151.134;2023-06-10T06:11:45;17.00;99.90
16392;DHT22;8305;-33.882;151.134;2023-06-10T06:14:16;17.00;99.90
16392;DHT22;8305;-33.882;151.134;2023-06-10T06:16:47;16.90;99.90
16392;DHT22;8305;-33.882;151.134;2023-06-10T06:19:18;16.90;99.90
16392;DHT22;8305;-33.882;151.134;2023-06-10T06:21:49;16.90;99.90
16392;DHT22;8305;-33.882;151.134;2023-06-10T06:24:20;16.80;99.90
16392;DHT22;8305;-33.882;151.134;2023-06-10T06:26:54;16.70;99.90
16392;DHT22;8305;-33.882;151.134;2023-06-10T06:29:25;16.60;99.90
16392;DHT22;8305;-33.882;151.134;2023-06-10T06:31:57;16.50;99.90
16392;DHT22;8305;-33.882;151.134;2023-06-10T06:34:29;16.50;99.90
16392;DHT22;8305;-33.882;151.134;2023-06-10T06:37:00;16.40;99.90
16392;DHT22;8305;-33.882;151.134;2023-06-10T06:39:31;16.30;99.90
16392;DHT22;8305;-33.882;151.134;2023-06-10T06:42:04;16.20;99.90
16392;DHT22;8305;-33.882;151.134;2023-06-10T06:44:35;16.10;99.90
16392;DHT22;8305;-33.882;151.134;2023-06-10T06:47:07;16.00;99.90
16392;DHT22;8305;-33.882;151.134;2023-06-10T06:49:38;15.90;99.90
16392;DHT22;8305;-33.882;151.134;2023-06-10T06:52:09;15.80;99.90
16392;DHT22;8305;-33.882;151.134;2023-06-10T06:54:40;15.70;99.90
16392;DHT22;8305;-33.882;151.134;2023-06-10T06:57:13;15.70;99.90
16392;DHT22;8305;-33.882;151.134;2023-06-10T06:59:45;15.50;99.90
16392;DHT22;8305;-33.882;151.134;2023-06-10T07:02:16;15.50;99.90
16392;DHT22;8305;-33.882;151.134;2023-06-10T07:04:47;15.40;99.90
16392;DHT22;8305;-33.882;151.134;2023-06-10T07:07:19;15.30;99.90
16392;DHT22;8305;-33.882;151.134;2023-06-10T07:09:50;15.20;99.90
16392;DHT22;8305;-33.882;151.134;2023-06-10T07:12:23;15.20;99.90
16392;DHT22;8305;-33.882;151.134;2023-06-10T07:14:54;15.10;99.90
16392;DHT22;8305;-33.882;151.134;2023-06-10T07:17:25;15.00;99.90
16392;DHT22;8305;-33.882;151.134;2023-06-10T07:19:56;15.00;99.90
16392;DHT22;8305;-33.882;151.134;2023-06-10T07:22:27;14.80;99.90
16392;DHT22;8305;-33.882;151.134;2023-06-10T07:24:58;14.80;99.90
16392;DHT22;8305;-33.882;151.134;2023-06-10T07:27:31;14.70;99.90
16392;DHT22;8305;-33.882;151.134;2023-06-10T07:30:04;14.60;99.90
16392;DHT22;8305;-33.882;151.134;2023-06-10T07:32:36;14.50;99.90
16392;DHT22;8305;-33.882;151.134;2023-06-10T07:35:09;14.40;99.90
16392;DHT22;8305;-33.882;151.134;2023-06-10T07:37:41;14.40;99.90
16392;DHT22;8305;-33.882;151.134;2023-06-10T07:40:12;14.30;99.90
16392;DHT22;8305;-33.882;151.134;2023-06-10T07:42:45;14.20;99.90
16392;DHT22;8305;-33.882;151.134;2023-06-10T07:45:16;14.10;99.90
16392;DHT22;8305;-33.882;151.134;2023-06-10T07:47:47;14.00;99.90
16392;DHT22;8305;-33.882;151.134;2023-06-10T07:50:18;14.00;99.90
16392;DHT22;8305;-33.882;151.134;2023-06-10T07:52:49;14.00;99.90
16392;DHT22;8305;-33.882;151.134;2023-06-10T07:55:21;14.00;99.90
16392;DHT22;8305;-33.882;151.134;2023-06-10T07:57:55;14.00;99.90
16392;DHT22;8305;-33.882;151.134;2023-06-10T08:00:26;14.00;99.90
16392;DHT22;8305;-33.882;151.134;2023-06-10T08:02:57;13.90;99.90
16392;DHT22;8305;-33.882;151.134;2023-06-10T08:05:29;13.90;99.90
16392;DHT22;8305;-33.882;151.134;2023-06-10T08:08:00;13.80;99.90
16392;DHT22;8305;-33.882;151.134;2023-06-10T08:10:31;13.70;99.90
16392;DHT22;8305;-33.882;151.134;2023-06-10T08:13:04;13.70;99.90
16392;DHT22;8305;-33.882;151.134;2023-06-10T08:15:35;13.70;99.90
16392;DHT22;8305;-33.882;151.134;2023-06-10T08:18:06;13.70;99.90
16392;DHT22;8305;-33.882;151.134;2023-06-10T08:20:37;13.60;99.90
16392;DHT22;8305;-33.882;151.134;2023-06-10T08:23:08;13.60;99.90
16392;DHT22;8305;-33.882;151.134;2023-06-10T08:25:39;13.60;99.90
16392;DHT22;8305;-33.882;151.134;2023-06-10T08:28:12;13.60;99.90
16392;DHT22;8305;-33.882;151.134;2023-06-10T08:30:43;13.50;99.90
16392;DHT22;8305;-33.882;151.134;2023-06-10T08:33:15;13.50;99.90
16392;DHT22;8305;-33.882;151.134;2023-06-10T08:35:46;13.50;99.90
16392;DHT22;8305;-33.882;151.134;2023-06-10T08:38:17;13.40;99.90
16392;DHT22;8305;-33.882;151.134;2023-06-10T08:40:48;13.40;99.90
16392;DHT22;8305;-33.882;151.134;2023-06-10T08:43:24;13.40;99.90
16392;DHT22;8305;-33.882;151.134;2023-06-10T08:46:01;13.40;99.90
16392;DHT22;8305;-33.882;151.134;2023-06-10T08:48:34;13.30;99.90
16392;DHT22;8305;-33.882;151.134;2023-06-10T08:51:06;13.30;99.90
16392;DHT22;8305;-33.882;151.134;2023-06-10T08:53:41;13.30;99.90
16392;DHT22;8305;-33.882;151.134;2023-06-10T08:56:14;13.20;99.90
16392;DHT22;8305;-33.882;151.134;2023-06-10T08:58:49;13.20;99.90
16392;DHT22;8305;-33.882;151.134;2023-06-10T09:01:20;13.10;99.90
16392;DHT22;8305;-33.882;151.134;2023-06-10T09:03:52;13.10;99.90
16392;DHT22;8305;-33.882;151.134;2023-06-10T09:06:23;13.10;99.90
16392;DHT22;8305;-33.882;151.134;2023-06-10T09:08:54;13.00;99.90
16392;DHT22;8305;-33.882;151.134;2023-06-10T09:11:26;13.00;99.90
16392;DHT22;8305;-33.882;151.134;2023-06-10T09:13:59;13.00;99.90
16392;DHT22;8305;-33.882;151.134;2023-06-10T09:16:30;13.00;99.90
16392;DHT22;8305;-33.882;151.134;2023-06-10T09:19:01;13.00;99.90
16392;DHT22;8305;-33.882;151.134;2023-06-10T09:21:35;13.00;99.90
16392;DHT22;8305;-33.882;151.134;2023-06-10T09:24:07;13.00;99.90
16392;DHT22;8305;-33.882;151.134;2023-06-10T09:26:38;13.00;99.90
16392;DHT22;8305;-33.882;151.134;2023-06-10T09:29:11;12.90;99.90
16392;DHT22;8305;-33.882;151.134;2023-06-10T09:31:42;12.90;99.90
16392;DHT22;8305;-33.882;151.134;2023-06-10T09:34:15;12.90;99.90
16392;DHT22;8305;-33.882;151.134;2023-06-10T09:36:47;12.90;99.90
16392;DHT22;8305;-33.882;151.134;2023-06-10T09:39:18;12.80;99.90
16392;DHT22;8305;-33.882;151.134;2023-06-10T09:41:49;12.80;99.90
16392;DHT22;8305;-33.882;151.134;2023-06-10T09:44:23;12.70;99.90
16392;DHT22;8305;-33.882;151.134;2023-06-10T09:46:56;12.70;99.90
16392;DHT22;8305;-33.882;151.134;2023-06-10T09:49:30;12.60;99.90
16392;DHT22;8305;-33.882;151.134;2023-06-10T09:52:01;12.60;99.90
16392;DHT22;8305;-33.882;151.134;2023-06-10T09:54:36;12.60;99.90
16392;DHT22;8305;-33.882;151.134;2023-06-10T09:57:09;12.60;99.90
16392;DHT22;8305;-33.882;151.134;2023-06-10T09:59:42;12.50;99.90
16392;DHT22;8305;-33.882;151.134;2023-06-10T10:02:15;12.50;99.90
16392;DHT22;8305;-33.882;151.134;2023-06-10T10:04:47;12.50;99.90
16392;DHT22;8305;-33.882;151.134;2023-06-10T10:07:18;12.50;99.90
16392;DHT22;8305;-33.882;151.134;2023-06-10T10:09:49;12.50;99.90
16392;DHT22;8305;-33.882;151.134;2023-06-10T10:12:20;12.50;99.90
16392;DHT22;8305;-33.882;151.134;2023-06-10T10:14:56;12.40;99.90
16392;DHT22;8305;-33.882;151.134;2023-06-10T10:17:27;12.40;99.90
16392;DHT22;8305;-33.882;151.134;2023-06-10T10:20:03;12.40;99.90
16392;DHT22;8305;-33.882;151.134;2023-06-10T10:22:38;12.30;99.90
16392;DHT22;8305;-33.882;151.134;2023-06-10T10:25:12;12.30;99.90
16392;DHT22;8305;-33.882;151.134;2023-06-10T10:27:47;12.30;99.90
16392;DHT22;8305;-33.882;151.134;2023-06-10T10:30:22;12.30;99.90
16392;DHT22;8305;-33.882;151.134;2023-06-10T10:32:58;12.30;99.90
16392;DHT22;8305;-33.882;151.134;2023-06-10T10:35:32;12.30;99.90
16392;DHT22;8305;-33.882;151.134;2023-06-10T10:38:03;12.30;99.90
16392;DHT22;8305;-33.882;151.134;2023-06-10T10:40:35;12.30;99.90
16392;DHT22;8305;-33.882;151.134;2023-06-10T10:43:07;12.30;99.90
16392;DHT22;8305;-33.882;151.134;2023-06-10T10:45:40;12.30;99.90
16392;DHT22;8305;-33.882;151.134;2023-06-10T10:48:11;12.20;99.90
16392;DHT22;8305;-33.882;151.134;2023-06-10T10:50:43;12.20;99.90
16392;DHT22;8305;-33.882;151.134;2023-06-10T10:53:21;12.10;99.90
16392;DHT22;8305;-33.882;151.134;2023-06-10T10:56:00;12.10;99.90
16392;DHT22;8305;-33.882;151.134;2023-06-10T10:58:35;12.10;99.90
16392;DHT22;8305;-33.882;151.134;2023-06-10T11:01:17;12.10;99.90
16392;DHT22;8305;-33.882;151.134;2023-06-10T11:03:48;12.00;99.90
16392;DHT22;8305;-33.882;151.134;2023-06-10T11:06:19;12.00;99.90
16392;DHT22;8305;-33.882;151.134;2023-06-10T11:08:51;11.90;99.90
16392;DHT22;8305;-33.882;151.134;2023-06-10T11:11:23;12.00;99.90
16392;DHT22;8305;-33.882;151.134;2023-06-10T11:14:08;12.00;99.90
16392;DHT22;8305;-33.882;151.134;2023-06-10T11:16:45;12.00;99.90
16392;DHT22;8305;-33.882;151.134;2023-06-10T11:19:32;12.00;99.90
16392;DHT22;8305;-33.882;151.134;2023-06-10T11:22:05;12.10;99.90
16392;DHT22;8305;-33.882;151.134;2023-06-10T11:24:36;12.10;99.90
16392;DHT22;8305;-33.882;151.134;2023-06-10T11:27:18;12.10;99.90
16392;DHT22;8305;-33.882;151.134;2023-06-10T11:30:17;12.10;99.90
16392;DHT22;8305;-33.882;151.134;2023-06-10T11:32:53;12.10;99.90
16392;DHT22;8305;-33.882;151.134;2023-06-10T11:35:26;12.10;99.90
16392;DHT22;8305;-33.882;151.134;2023-06-10T11:37:58;12.10;99.90
16392;DHT22;8305;-33.882;151.134;2023-06-10T11:40:30;12.10;99.90
16392;DHT22;8305;-33.882;151.134;2023-06-10T11:43:03;12.10;99.90
16392;DHT22;8305;-33.882;151.134;2023-06-10T11:45:34;12.00;99.90
16392;DHT22;8305;-33.882;151.134;2023-06-10T11:48:09;12.00;99.90
16392;DHT22;8305;-33.882;151.134;2023-06-10T11:50:40;12.00;99.90
16392;DHT22;8305;-33.882;151.134;2023-06-10T11:53:11;12.00;99.90
16392;DHT22;8305;-33.882;151.134;2023-06-10T11:55:43;12.00;99.90
16392;DHT22;8305;-33.882;151.134;2023-06-10T11:58:16;12.00;99.90
16392;DHT22;8305;-33.882;151.134;2023-06-10T12:00:48;11.90;99.90
16392;DHT22;8305;-33.882;151.134;2023-06-10T12:03:23;11.90;99.90
16392;DHT22;8305;-33.882;151.134;2023-06-10T12:05:58;11.90;99.90
16392;DHT22;8305;-33.882;151.134;2023-06-10T12:08:30;11.90;99.90
16392;DHT22;8305;-33.882;151.134;2023-06-10T12:11:02;11.90;99.90
16392;DHT22;8305;-33.882;151.134;2023-06-10T12:13:33;11.80;99.90
16392;DHT22;8305;-33.882;151.134;2023-06-10T12:16:10;11.80;99.90
16392;DHT22;8305;-33.882;151.134;2023-06-10T12:18:44;11.80;99.90
16392;DHT22;8305;-33.882;151.134;2023-06-10T12:21:26;11.80;99.90
16392;DHT22;8305;-33.882;151.134;2023-06-10T12:24:07;11.80;99.90
16392;DHT22;8305;-33.882;151.134;2023-06-10T12:26:42;11.80;99.90
16392;DHT22;8305;-33.882;151.134;2023-06-10T12:29:21;11.70;99.90
16392;DHT22;8305;-33.882;151.134;2023-06-10T12:32:02;11.70;99.90
16392;DHT22;8305;-33.882;151.134;2023-06-10T12:34:39;11.60;99.90
16392;DHT22;8305;-33.882;151.134;2023-06-10T12:37:12;11.50;99.90
16392;DHT22;8305;-33.882;151.134;2023-06-10T12:39:52;11.30;99.90
16392;DHT22;8305;-33.882;151.134;2023-06-10T12:42:24;11.20;99.90
16392;DHT22;8305;-33.882;151.134;2023-06-10T12:44:55;11.10;99.90
16392;DHT22;8305;-33.882;151.134;2023-06-10T12:47:32;11.00;99.90
16392;DHT22;8305;-33.882;151.134;2023-06-10T12:50:06;11.00;99.90
16392;DHT22;8305;-33.882;151.134;2023-06-10T12:52:37;11.00;99.90
16392;DHT22;8305;-33.882;151.134;2023-06-10T12:55:09;10.90;99.90
16392;DHT22;8305;-33.882;151.134;2023-06-10T12:57:49;10.90;99.90
16392;DHT22;8305;-33.882;151.134;2023-06-10T13:00:20;10.90;99.90
16392;DHT22;8305;-33.882;151.134;2023-06-10T13:02:53;10.90;99.90
16392;DHT22;8305;-33.882;151.134;2023-06-10T13:05:26;10.90;99.90
16392;DHT22;8305;-33.882;151.134;2023-06-10T13:07:58;10.90;99.90
16392;DHT22;8305;-33.882;151.134;2023-06-10T13:10:29;10.90;99.90
16392;DHT22;8305;-33.882;151.134;2023-06-10T13:13:01;10.80;99.90
16392;DHT22;8305;-33.882;151.134;2023-06-10T13:15:33;10.80;99.90
16392;DHT22;8305;-33.882;151.134;2023-06-10T13:18:06;10.80;99.90
16392;DHT22;8305;-33.882;151.134;2023-06-10T13:20:39;10.60;99.90
16392;DHT22;8305;-33.882;151.134;2023-06-10T13:23:10;10.50;99.90
16392;DHT22;8305;-33.882;151.134;2023-06-10T13:25:41;10.50;99.90
16392;DHT22;8305;-33.882;151.134;2023-06-10T13:28:12;10.50;99.90
16392;DHT22;8305;-33.882;151.134;2023-06-10T13:30:43;10.50;99.90
16392;DHT22;8305;-33.882;151.134;2023-06-10T13:33:14;10.50;99.90
16392;DHT22;8305;-33.882;151.134;2023-06-10T13:35:47;10.50;99.90
16392;DHT22;8305;-33.882;151.134;2023-06-10T13:38:18;10.50;99.90
16392;DHT22;8305;-33.882;151.134;2023-06-10T13:40:49;10.50;99.90
16392;DHT22;8305;-33.882;151.134;2023-06-10T13:43:21;10.50;99.90
16392;DHT22;8305;-33.882;151.134;2023-06-10T13:45:52;10.50;99.90
16392;DHT22;8305;-33.882;151.134;2023-06-10T13:48:23;10.50;99.90
16392;DHT22;8305;-33.882;151.134;2023-06-10T13:50:56;10.50;99.90
16392;DHT22;8305;-33.882;151.134;2023-06-10T13:53:27;10.50;99.90
16392;DHT22;8305;-33.882;151.134;2023-06-10T13:55:58;10.50;99.90
16392;DHT22;8305;-33.882;151.134;2023-06-10T13:58:30;10.50;99.90
16392;DHT22;8305;-33.882;151.134;2023-06-10T14:01:06;10.50;99.90
16392;DHT22;8305;-33.882;151.134;2023-06-10T14:03:37;10.50;99.90
16392;DHT22;8305;-33.882;151.134;2023-06-10T14:06:10;10.40;99.90
16392;DHT22;8305;-33.882;151.134;2023-06-10T14:08:46;10.40;99.90
16392;DHT22;8305;-33.882;151.134;2023-06-10T14:11:17;10.40;99.90
16392;DHT22;8305;-33.882;151.134;2023-06-10T14:13:48;10.40;99.90
16392;DHT22;8305;-33.882;151.134;2023-06-10T14:16:24;10.40;99.90
16392;DHT22;8305;-33.882;151.134;2023-06-10T14:18:55;10.30;99.90
16392;DHT22;8305;-33.882;151.134;2023-06-10T14:21:28;10.30;99.90
16392;DHT22;8305;-33.882;151.134;2023-06-10T14:23:59;10.30;99.90
16392;DHT22;8305;-33.882;151.134;2023-06-10T14:26:30;10.30;99.90
16392;DHT22;8305;-33.882;151.134;2023-06-10T14:29:01;10.30;99.90
16392;DHT22;8305;-33.882;151.134;2023-06-10T14:31:33;10.30;99.90
16392;DHT22;8305;-33.882;151.134;2023-06-10T14:34:04;10.30;99.90
16392;DHT22;8305;-33.882;151.134;2023-06-10T14:36:37;10.30;99.90
16392;DHT22;8305;-33.882;151.134;2023-06-10T14:39:08;10.30;99.90
16392;DHT22;8305;-33.882;151.134;2023-06-10T14:41:40;10.30;99.90
16392;DHT22;8305;-33.882;151.134;2023-06-10T14:44:11;10.30;99.90
16392;DHT22;8305;-33.882;151.134;2023-06-10T14:46:42;10.30;99.90
16392;DHT22;8305;-33.882;151.134;2023-06-10T14:49:13;10.30;99.90
16392;DHT22;8305;-33.882;151.134;2023-06-10T14:51:46;10.30;99.90
16392;DHT22;8305;-33.882;151.134;2023-06-10T14:54:18;10.30;99.90
16392;DHT22;8305;-33.882;151.134;2023-06-10T14:56:49;10.30;99.90
16392;DHT22;8305;-33.882;151.134;2023-06-10T14:59:21;10.30;99.90
16392;DHT22;8305;-33.882;151.134;2023-06-10T15:01:52;10.30;99.90
16392;DHT22;8305;-33.882;151.134;2023-06-10T15:04:23;10.30;99.90
16392;DHT22;8305;-33.882;151.134;2023-06-10T15:06:56;10.20;99.90
16392;DHT22;8305;-33.882;151.134;2023-06-10T15:09:27;10.20;99.90
16392;DHT22;8305;-33.882;151.134;2023-06-10T15:11:59;10.20;99.90
16392;DHT22;8305;-33.882;151.134;2023-06-10T15:14:31;10.20;99.90
16392;DHT22;8305;-33.882;151.134;2023-06-10T15:17:02;10.10;99.90
16392;DHT22;8305;-33.882;151.134;2023-06-10T15:19:34;10.10;99.90
16392;DHT22;8305;-33.882;151.134;2023-06-10T15:22:07;10.10;99.90
16392;DHT22;8305;-33.882;151.134;2023-06-10T15:24:39;10.00;99.90
16392;DHT22;8305;-33.882;151.134;2023-06-10T15:27:10;10.00;99.90
16392;DHT22;8305;-33.882;151.134;2023-06-10T15:29:41;10.00;99.90
16392;DHT22;8305;-33.882;151.134;2023-06-10T15:32:12;9.90;99.90
16392;DHT22;8305;-33.882;151.134;2023-06-10T15:34:43;9.90;99.90